sensor_id;sensor_type;location;lat;lon;timestamp;P1;durP1;ratioP1;P2;durP2;ratioP2
5752;SDS011;2901;42.140;24.760;2022-07-29T00:00:29;4.32;;;2.85;;
5752;SDS011;2901;42.140;24.760;2022-07-29T00:17:10;3.40;;;3.10;;
5752;SDS011;2901;42.140;24.760;2022-07-29T02:13:54;6.10;;;5.70;;
5752;SDS011;2901;42.140;24.760;2022-07-29T02:16:21;8.88;;;5.35;;
5752;SDS011;2901;42.140;24.760;2022-07-29T02:18:49;6.40;;;5.85;;
5752;SDS011;2901;42.140;24.760;2022-07-29T02:21:21;7.72;;;5.35;;
5752;SDS011;2901;42.140;24.760;2022-07-29T02:23:50;5.50;;;5.18;;
5752;SDS011;2901;42.140;24.760;2022-07-29T02:26:18;8.02;;;5.35;;
5752;SDS011;2901;42.140;24.760;2022-07-29T02:28:45;5.30;;;5.00;;
5752;SDS011;2901;42.140;24.760;2022-07-29T02:31:12;7.45;;;5.45;;
5752;SDS011;2901;42.140;24.760;2022-07-29T02:33:39;10.07;;;4.78;;
5752;SDS011;2901;42.140;24.760;2022-07-29T02:36:05;5.30;;;4.75;;
5752;SDS011;2901;42.140;24.760;2022-07-29T02:38:32;9.88;;;5.28;;
5752;SDS011;2901;42.140;24.760;2022-07-29T02:41:35;6.57;;;5.18;;
5752;SDS011;2901;42.140;24.760;2022-07-29T02:44:12;7.95;;;6.05;;
5752;SDS011;2901;42.140;24.760;2022-07-29T02:46:46;5.20;;;4.80;;
5752;SDS011;2901;42.140;24.760;2022-07-29T02:49:16;6.25;;;5.35;;
5752;SDS011;2901;42.140;24.760;2022-07-29T02:51:54;5.25;;;4.90;;
5752;SDS011;2901;42.140;24.760;2022-07-29T02:54:28;5.22;;;4.70;;
5752;SDS011;2901;42.140;24.760;2022-07-29T02:57:05;4.95;;;4.57;;
5752;SDS011;2901;42.140;24.760;2022-07-29T02:59:39;4.95;;;4.68;;
5752;SDS011;2901;42.140;24.760;2022-07-29T03:02:07;9.85;;;5.18;;
5752;SDS011;2901;42.140;24.760;2022-07-29T03:04:34;6.80;;;5.18;;
5752;SDS011;2901;42.140;24.760;2022-07-29T03:07:03;5.15;;;4.88;;
5752;SDS011;2901;42.140;24.760;2022-07-29T03:09:30;5.22;;;4.93;;
5752;SDS011;2901;42.140;24.760;2022-07-29T03:11:56;4.72;;;4.53;;
5752;SDS011;2901;42.140;24.760;2022-07-29T03:14:22;7.97;;;5.03;;
5752;SDS011;2901;42.140;24.760;2022-07-29T03:16:49;5.10;;;4.80;;
5752;SDS011;2901;42.140;24.760;2022-07-29T03:19:16;5.95;;;5.22;;
5752;SDS011;2901;42.140;24.760;2022-07-29T03:21:42;6.15;;;5.38;;
5752;SDS011;2901;42.140;24.760;2022-07-29T03:24:07;8.35;;;5.18;;
5752;SDS011;2901;42.140;24.760;2022-07-29T03:26:32;5.65;;;5.32;;
5752;SDS011;2901;42.140;24.760;2022-07-29T03:28:58;5.97;;;5.15;;
5752;SDS011;2901;42.140;24.760;2022-07-29T03:31:24;5.68;;;5.28;;
5752;SDS011;2901;42.140;24.760;2022-07-29T03:33:49;6.10;;;5.60;;
5752;SDS011;2901;42.140;24.760;2022-07-29T03:36:15;7.10;;;5.53;;
5752;SDS011;2901;42.140;24.760;2022-07-29T03:38:40;9.52;;;5.63;;
5752;SDS011;2901;42.140;24.760;2022-07-29T03:41:09;6.15;;;5.57;;
5752;SDS011;2901;42.140;24.760;2022-07-29T03:43:37;7.40;;;6.25;;
5752;SDS011;2901;42.140;24.760;2022-07-29T03:46:06;6.75;;;6.35;;
5752;SDS011;2901;42.140;24.760;2022-07-29T03:48:34;9.82;;;6.22;;
5752;SDS011;2901;42.140;24.760;2022-07-29T03:51:04;6.60;;;5.97;;
5752;SDS011;2901;42.140;24.760;2022-07-29T03:53:31;6.57;;;6.28;;
5752;SDS011;2901;42.140;24.760;2022-07-29T03:55:58;6.20;;;5.70;;
5752;SDS011;2901;42.140;24.760;2022-07-29T03:58:26;6.63;;;6.00;;
5752;SDS011;2901;42.140;24.760;2022-07-29T04:00:52;6.57;;;6.18;;
5752;SDS011;2901;42.140;24.760;2022-07-29T04:03:19;11.27;;;7.18;;
5752;SDS011;2901;42.140;24.760;2022-07-29T04:05:48;8.18;;;6.47;;
5752;SDS011;2901;42.140;24.760;2022-07-29T04:08:23;8.02;;;6.57;;
5752;SDS011;2901;42.140;24.760;2022-07-29T04:10:48;7.18;;;6.78;;
5752;SDS011;2901;42.140;24.760;2022-07-29T04:13:14;7.35;;;6.63;;
5752;SDS011;2901;42.140;24.760;2022-07-29T04:15:40;7.57;;;7.00;;
5752;SDS011;2901;42.140;24.760;2022-07-29T04:18:05;7.43;;;6.75;;
5752;SDS011;2901;42.140;24.760;2022-07-29T04:20:31;8.20;;;7.40;;
5752;SDS011;2901;42.140;24.760;2022-07-29T04:22:56;8.98;;;8.10;;
5752;SDS011;2901;42.140;24.760;2022-07-29T04:25:21;8.30;;;7.57;;
5752;SDS011;2901;42.140;24.760;2022-07-29T04:27:48;7.75;;;7.15;;
5752;SDS011;2901;42.140;24.760;2022-07-29T04:30:25;8.48;;;7.88;;
5752;SDS011;2901;42.140;24.760;2022-07-29T04:32:51;8.88;;;8.18;;
5752;SDS011;2901;42.140;24.760;2022-07-29T04:35:17;9.60;;;8.40;;
5752;SDS011;2901;42.140;24.760;2022-07-29T04:37:43;10.30;;;9.25;;
5752;SDS011;2901;42.140;24.760;2022-07-29T04:40:08;12.10;;;10.82;;
5752;SDS011;2901;42.140;24.760;2022-07-29T04:42:34;11.13;;;10.15;;
5752;SDS011;2901;42.140;24.760;2022-07-29T04:44:59;10.90;;;9.80;;
5752;SDS011;2901;42.140;24.760;2022-07-29T04:47:25;9.65;;;8.85;;
5752;SDS011;2901;42.140;24.760;2022-07-29T04:49:50;7.88;;;7.10;;
5752;SDS011;2901;42.140;24.760;2022-07-29T04:52:15;6.00;;;5.60;;
5752;SDS011;2901;42.140;24.760;2022-07-29T04:54:41;6.13;;;5.82;;
5752;SDS011;2901;42.140;24.760;2022-07-29T04:57:06;5.82;;;4.72;;
5752;SDS011;2901;42.140;24.760;2022-07-29T04:59:31;6.10;;;5.45;;
5752;SDS011;2901;42.140;24.760;2022-07-29T05:01:57;5.40;;;5.00;;
5752;SDS011;2901;42.140;24.760;2022-07-29T05:04:22;5.82;;;5.43;;
5752;SDS011;2901;42.140;24.760;2022-07-29T05:06:48;5.32;;;4.93;;
5752;SDS011;2901;42.140;24.760;2022-07-29T05:09:13;5.65;;;5.45;;
5752;SDS011;2901;42.140;24.760;2022-07-29T05:11:38;6.13;;;5.43;;
5752;SDS011;2901;42.140;24.760;2022-07-29T05:14:04;6.60;;;5.97;;
5752;SDS011;2901;42.140;24.760;2022-07-29T05:16:29;6.50;;;5.90;;
5752;SDS011;2901;42.140;24.760;2022-07-29T05:18:55;7.22;;;6.68;;
5752;SDS011;2901;42.140;24.760;2022-07-29T05:21:20;7.05;;;6.55;;
5752;SDS011;2901;42.140;24.760;2022-07-29T05:23:46;7.40;;;6.88;;
5752;SDS011;2901;42.140;24.760;2022-07-29T05:26:11;7.22;;;6.53;;
5752;SDS011;2901;42.140;24.760;2022-07-29T05:28:37;7.10;;;6.70;;
5752;SDS011;2901;42.140;24.760;2022-07-29T05:31:02;6.85;;;5.85;;
5752;SDS011;2901;42.140;24.760;2022-07-29T05:33:28;5.85;;;5.40;;
5752;SDS011;2901;42.140;24.760;2022-07-29T05:35:53;6.10;;;5.47;;
5752;SDS011;2901;42.140;24.760;2022-07-29T05:38:19;6.57;;;5.50;;
5752;SDS011;2901;42.140;24.760;2022-07-29T05:40:44;5.70;;;5.25;;
5752;SDS011;2901;42.140;24.760;2022-07-29T05:43:10;9.43;;;5.95;;
5752;SDS011;2901;42.140;24.760;2022-07-29T05:45:35;5.85;;;5.47;;
5752;SDS011;2901;42.140;24.760;2022-07-29T05:48:00;9.10;;;5.63;;
5752;SDS011;2901;42.140;24.760;2022-07-29T05:50:26;7.88;;;6.07;;
5752;SDS011;2901;42.140;24.760;2022-07-29T05:52:51;13.20;;;6.45;;
5752;SDS011;2901;42.140;24.760;2022-07-29T05:55:17;12.30;;;6.65;;
5752;SDS011;2901;42.140;24.760;2022-07-29T05:57:42;8.00;;;5.57;;
5752;SDS011;2901;42.140;24.760;2022-07-29T06:00:09;5.93;;;5.45;;
5752;SDS011;2901;42.140;24.760;2022-07-29T06:02:35;6.32;;;6.03;;
5752;SDS011;2901;42.140;24.760;2022-07-29T06:05:00;6.50;;;6.20;;
5752;SDS011;2901;42.140;24.760;2022-07-29T06:07:26;6.28;;;5.75;;
5752;SDS011;2901;42.140;24.760;2022-07-29T06:09:51;6.38;;;5.88;;
5752;SDS011;2901;42.140;24.760;2022-07-29T06:12:17;7.75;;;7.00;;
5752;SDS011;2901;42.140;24.760;2022-07-29T06:14:42;6.55;;;6.15;;
5752;SDS011;2901;42.140;24.760;2022-07-29T06:17:07;6.95;;;6.03;;
5752;SDS011;2901;42.140;24.760;2022-07-29T06:19:36;7.95;;;6.07;;
5752;SDS011;2901;42.140;24.760;2022-07-29T06:22:01;7.47;;;6.97;;
5752;SDS011;2901;42.140;24.760;2022-07-29T06:24:27;6.70;;;6.30;;
5752;SDS011;2901;42.140;24.760;2022-07-29T06:26:52;9.20;;;6.38;;
5752;SDS011;2901;42.140;24.760;2022-07-29T06:29:18;7.75;;;7.13;;
5752;SDS011;2901;42.140;24.760;2022-07-29T06:31:43;7.90;;;6.72;;
5752;SDS011;2901;42.140;24.760;2022-07-29T06:34:08;7.70;;;7.10;;
5752;SDS011;2901;42.140;24.760;2022-07-29T06:36:37;12.27;;;11.18;;
5752;SDS011;2901;42.140;24.760;2022-07-29T06:39:06;8.00;;;7.43;;
5752;SDS011;2901;42.140;24.760;2022-07-29T06:41:33;8.88;;;7.75;;
5752;SDS011;2901;42.140;24.760;2022-07-29T06:43:58;12.02;;;8.02;;
5752;SDS011;2901;42.140;24.760;2022-07-29T06:46:24;7.68;;;7.38;;
5752;SDS011;2901;42.140;24.760;2022-07-29T06:48:50;7.85;;;7.35;;
5752;SDS011;2901;42.140;24.760;2022-07-29T06:51:16;9.57;;;7.30;;
5752;SDS011;2901;42.140;24.760;2022-07-29T06:53:42;10.48;;;7.32;;
5752;SDS011;2901;42.140;24.760;2022-07-29T06:56:08;7.07;;;6.57;;
5752;SDS011;2901;42.140;24.760;2022-07-29T06:58:34;9.23;;;7.32;;
5752;SDS011;2901;42.140;24.760;2022-07-29T07:01:01;8.05;;;6.97;;
5752;SDS011;2901;42.140;24.760;2022-07-29T07:03:28;7.07;;;6.78;;
5752;SDS011;2901;42.140;24.760;2022-07-29T07:05:54;6.85;;;6.55;;
5752;SDS011;2901;42.140;24.760;2022-07-29T07:08:19;7.88;;;7.25;;
5752;SDS011;2901;42.140;24.760;2022-07-29T07:10:46;8.98;;;6.68;;
5752;SDS011;2901;42.140;24.760;2022-07-29T07:13:12;7.97;;;7.43;;
5752;SDS011;2901;42.140;24.760;2022-07-29T07:15:38;10.70;;;7.85;;
5752;SDS011;2901;42.140;24.760;2022-07-29T07:18:04;8.93;;;7.05;;
5752;SDS011;2901;42.140;24.760;2022-07-29T07:20:31;11.15;;;6.68;;
5752;SDS011;2901;42.140;24.760;2022-07-29T07:22:57;8.23;;;6.72;;
5752;SDS011;2901;42.140;24.760;2022-07-29T07:25:22;6.07;;;5.55;;
5752;SDS011;2901;42.140;24.760;2022-07-29T07:27:47;7.68;;;5.72;;
5752;SDS011;2901;42.140;24.760;2022-07-29T07:30:13;16.38;;;6.88;;
5752;SDS011;2901;42.140;24.760;2022-07-29T07:32:39;16.00;;;6.43;;
5752;SDS011;2901;42.140;24.760;2022-07-29T07:35:05;8.13;;;5.32;;
5752;SDS011;2901;42.140;24.760;2022-07-29T07:37:32;10.63;;;6.22;;
5752;SDS011;2901;42.140;24.760;2022-07-29T07:39:58;7.97;;;5.82;;
5752;SDS011;2901;42.140;24.760;2022-07-29T07:42:24;6.05;;;5.47;;
5752;SDS011;2901;42.140;24.760;2022-07-29T07:44:50;7.97;;;6.25;;
5752;SDS011;2901;42.140;24.760;2022-07-29T07:47:15;5.53;;;5.13;;
5752;SDS011;2901;42.140;24.760;2022-07-29T07:49:51;10.52;;;6.28;;
5752;SDS011;2901;42.140;24.760;2022-07-29T07:52:18;8.52;;;5.30;;
5752;SDS011;2901;42.140;24.760;2022-07-29T07:54:45;8.35;;;5.40;;
5752;SDS011;2901;42.140;24.760;2022-07-29T07:57:11;5.88;;;4.65;;
5752;SDS011;2901;42.140;24.760;2022-07-29T07:59:37;5.43;;;4.25;;
5752;SDS011;2901;42.140;24.760;2022-07-29T08:02:03;4.30;;;3.70;;
5752;SDS011;2901;42.140;24.760;2022-07-29T08:04:29;4.57;;;4.13;;
5752;SDS011;2901;42.140;24.760;2022-07-29T08:06:55;5.20;;;4.20;;
5752;SDS011;2901;42.140;24.760;2022-07-29T08:09:21;4.93;;;4.53;;
5752;SDS011;2901;42.140;24.760;2022-07-29T08:11:47;11.68;;;4.70;;
5752;SDS011;2901;42.140;24.760;2022-07-29T08:14:13;4.43;;;4.22;;
5752;SDS011;2901;42.140;24.760;2022-07-29T08:16:38;6.38;;;4.38;;
5752;SDS011;2901;42.140;24.760;2022-07-29T08:19:05;6.88;;;3.95;;
5752;SDS011;2901;42.140;24.760;2022-07-29T08:21:31;4.82;;;3.28;;
5752;SDS011;2901;42.140;24.760;2022-07-29T08:23:56;3.05;;;2.95;;
5752;SDS011;2901;42.140;24.760;2022-07-29T08:26:57;3.45;;;3.17;;
5752;SDS011;2901;42.140;24.760;2022-07-29T08:29:22;5.55;;;3.10;;
5752;SDS011;2901;42.140;24.760;2022-07-29T08:31:48;4.35;;;3.83;;
5752;SDS011;2901;42.140;24.760;2022-07-29T08:34:13;3.88;;;3.28;;
5752;SDS011;2901;42.140;24.760;2022-07-29T08:36:38;3.50;;;3.20;;
5752;SDS011;2901;42.140;24.760;2022-07-29T08:39:04;4.35;;;4.13;;
5752;SDS011;2901;42.140;24.760;2022-07-29T08:41:29;4.47;;;2.90;;
5752;SDS011;2901;42.140;24.760;2022-07-29T08:43:56;2.85;;;2.65;;
5752;SDS011;2901;42.140;24.760;2022-07-29T08:46:21;7.32;;;3.10;;
5752;SDS011;2901;42.140;24.760;2022-07-29T08:48:47;3.85;;;3.22;;
5752;SDS011;2901;42.140;24.760;2022-07-29T08:51:19;7.32;;;3.13;;
5752;SDS011;2901;42.140;24.760;2022-07-29T08:53:47;3.22;;;3.03;;
5752;SDS011;2901;42.140;24.760;2022-07-29T08:56:14;5.63;;;3.38;;
5752;SDS011;2901;42.140;24.760;2022-07-29T08:58:43;4.18;;;3.20;;
5752;SDS011;2901;42.140;24.760;2022-07-29T09:01:12;4.97;;;3.20;;
5752;SDS011;2901;42.140;24.760;2022-07-29T09:03:41;3.47;;;3.28;;
5752;SDS011;2901;42.140;24.760;2022-07-29T09:06:09;3.47;;;3.08;;
5752;SDS011;2901;42.140;24.760;2022-07-29T09:08:38;3.85;;;3.03;;
5752;SDS011;2901;42.140;24.760;2022-07-29T09:11:04;11.85;;;3.90;;
5752;SDS011;2901;42.140;24.760;2022-07-29T09:13:31;12.82;;;3.42;;
5752;SDS011;2901;42.140;24.760;2022-07-29T09:15:57;3.28;;;3.08;;
5752;SDS011;2901;42.140;24.760;2022-07-29T09:18:41;2.92;;;2.83;;
5752;SDS011;2901;42.140;24.760;2022-07-29T09:21:09;7.35;;;3.30;;
5752;SDS011;2901;42.140;24.760;2022-07-29T09:24:04;3.38;;;3.17;;
5752;SDS011;2901;42.140;24.760;2022-07-29T09:26:32;3.90;;;3.53;;
5752;SDS011;2901;42.140;24.760;2022-07-29T09:29:07;2.97;;;2.72;;
5752;SDS011;2901;42.140;24.760;2022-07-29T09:31:35;3.17;;;2.92;;
5752;SDS011;2901;42.140;24.760;2022-07-29T09:34:04;3.28;;;2.40;;
5752;SDS011;2901;42.140;24.760;2022-07-29T09:36:30;5.00;;;4.60;;
5752;SDS011;2901;42.140;24.760;2022-07-29T09:38:59;4.65;;;4.00;;
5752;SDS011;2901;42.140;24.760;2022-07-29T09:41:25;4.13;;;2.75;;
5752;SDS011;2901;42.140;24.760;2022-07-29T09:43:57;5.75;;;3.33;;
5752;SDS011;2901;42.140;24.760;2022-07-29T09:46:24;3.67;;;3.35;;
5752;SDS011;2901;42.140;24.760;2022-07-29T09:49:12;4.75;;;3.60;;
5752;SDS011;2901;42.140;24.760;2022-07-29T09:51:39;3.35;;;3.05;;
5752;SDS011;2901;42.140;24.760;2022-07-29T09:54:25;3.05;;;2.85;;
5752;SDS011;2901;42.140;24.760;2022-07-29T09:56:52;2.78;;;2.58;;
5752;SDS011;2901;42.140;24.760;2022-07-29T09:59:19;2.58;;;2.38;;
5752;SDS011;2901;42.140;24.760;2022-07-29T10:01:51;8.48;;;3.28;;
5752;SDS011;2901;42.140;24.760;2022-07-29T10:04:17;2.05;;;1.95;;
5752;SDS011;2901;42.140;24.760;2022-07-29T10:06:55;3.22;;;2.30;;
5752;SDS011;2901;42.140;24.760;2022-07-29T10:09:22;2.88;;;2.60;;
5752;SDS011;2901;42.140;24.760;2022-07-29T10:14:30;3.28;;;2.75;;
5752;SDS011;2901;42.140;24.760;2022-07-29T10:16:57;2.95;;;1.95;;
5752;SDS011;2901;42.140;24.760;2022-07-29T10:19:25;3.20;;;2.70;;
5752;SDS011;2901;42.140;24.760;2022-07-29T10:21:50;5.63;;;3.10;;
5752;SDS011;2901;42.140;24.760;2022-07-29T10:24:16;3.45;;;2.92;;
5752;SDS011;2901;42.140;24.760;2022-07-29T10:26:42;2.78;;;2.60;;
5752;SDS011;2901;42.140;24.760;2022-07-29T10:29:07;4.93;;;2.65;;
5752;SDS011;2901;42.140;24.760;2022-07-29T10:39:57;2.33;;;2.22;;
5752;SDS011;2901;42.140;24.760;2022-07-29T10:42:52;3.08;;;2.80;;
5752;SDS011;2901;42.140;24.760;2022-07-29T10:45:18;2.50;;;2.40;;
5752;SDS011;2901;42.140;24.760;2022-07-29T10:47:44;3.25;;;3.00;;
5752;SDS011;2901;42.140;24.760;2022-07-29T10:50:10;2.78;;;2.67;;
5752;SDS011;2901;42.140;24.760;2022-07-29T10:58:17;4.82;;;3.22;;
5752;SDS011;2901;42.140;24.760;2022-07-29T11:00:48;2.75;;;2.55;;
5752;SDS011;2901;42.140;24.760;2022-07-29T11:06:04;3.63;;;3.08;;
5752;SDS011;2901;42.140;24.760;2022-07-29T11:08:30;4.13;;;3.15;;
5752;SDS011;2901;42.140;24.760;2022-07-29T11:13:46;3.33;;;3.05;;
5752;SDS011;2901;42.140;24.760;2022-07-29T11:16:13;2.90;;;2.80;;
5752;SDS011;2901;42.140;24.760;2022-07-29T11:21:36;3.85;;;3.15;;
5752;SDS011;2901;42.140;24.760;2022-07-29T11:32:15;2.80;;;2.63;;
5752;SDS011;2901;42.140;24.760;2022-07-29T11:34:44;3.65;;;2.85;;
5752;SDS011;2901;42.140;24.760;2022-07-29T11:44:58;2.75;;;2.65;;
5752;SDS011;2901;42.140;24.760;2022-07-29T11:47:25;5.85;;;2.72;;
5752;SDS011;2901;42.140;24.760;2022-07-29T11:49:52;2.40;;;2.30;;
5752;SDS011;2901;42.140;24.760;2022-07-29T11:52:19;2.65;;;2.55;;
5752;SDS011;2901;42.140;24.760;2022-07-29T11:54:47;2.75;;;2.53;;
5752;SDS011;2901;42.140;24.760;2022-07-29T11:57:22;3.00;;;2.08;;
5752;SDS011;2901;42.140;24.760;2022-07-29T11:59:49;3.03;;;2.70;;
5752;SDS011;2901;42.140;24.760;2022-07-29T12:02:16;2.20;;;2.10;;
5752;SDS011;2901;42.140;24.760;2022-07-29T12:04:54;4.43;;;2.35;;
5752;SDS011;2901;42.140;24.760;2022-07-29T12:07:27;2.35;;;2.25;;
5752;SDS011;2901;42.140;24.760;2022-07-29T12:09:57;2.35;;;2.25;;
5752;SDS011;2901;42.140;24.760;2022-07-29T12:12:23;6.32;;;2.45;;
5752;SDS011;2901;42.140;24.760;2022-07-29T12:14:49;2.53;;;2.42;;
5752;SDS011;2901;42.140;24.760;2022-07-29T12:19:57;2.97;;;2.78;;
5752;SDS011;2901;42.140;24.760;2022-07-29T12:22:31;2.40;;;2.30;;
5752;SDS011;2901;42.140;24.760;2022-07-29T12:25:12;2.28;;;2.17;;
5752;SDS011;2901;42.140;24.760;2022-07-29T12:27:40;2.53;;;2.42;;
5752;SDS011;2901;42.140;24.760;2022-07-29T12:30:12;3.22;;;2.30;;
5752;SDS011;2901;42.140;24.760;2022-07-29T12:32:40;2.40;;;2.30;;
5752;SDS011;2901;42.140;24.760;2022-07-29T12:35:10;2.60;;;2.35;;
5752;SDS011;2901;42.140;24.760;2022-07-29T12:37:38;3.20;;;2.05;;
5752;SDS011;2901;42.140;24.760;2022-07-29T12:40:06;2.75;;;2.20;;
5752;SDS011;2901;42.140;24.760;2022-07-29T12:42:32;5.95;;;2.33;;
5752;SDS011;2901;42.140;24.760;2022-07-29T12:44:59;2.85;;;2.72;;
5752;SDS011;2901;42.140;24.760;2022-07-29T12:47:25;3.38;;;2.70;;
5752;SDS011;2901;42.140;24.760;2022-07-29T12:49:51;3.95;;;2.75;;
5752;SDS011;2901;42.140;24.760;2022-07-29T12:52:34;2.60;;;2.50;;
5752;SDS011;2901;42.140;24.760;2022-07-29T12:55:00;2.67;;;2.47;;
5752;SDS011;2901;42.140;24.760;2022-07-29T12:57:26;3.97;;;2.67;;
5752;SDS011;2901;42.140;24.760;2022-07-29T13:02:39;2.70;;;2.50;;
5752;SDS011;2901;42.140;24.760;2022-07-29T13:05:05;3.10;;;2.80;;
5752;SDS011;2901;42.140;24.760;2022-07-29T13:07:33;4.10;;;2.70;;
5752;SDS011;2901;42.140;24.760;2022-07-29T13:10:14;3.53;;;2.60;;
5752;SDS011;2901;42.140;24.760;2022-07-29T13:15:32;3.40;;;3.10;;
5752;SDS011;2901;42.140;24.760;2022-07-29T13:17:58;3.22;;;3.03;;
5752;SDS011;2901;42.140;24.760;2022-07-29T13:20:24;6.35;;;3.42;;
5752;SDS011;2901;42.140;24.760;2022-07-29T13:22:52;3.10;;;3.00;;
5752;SDS011;2901;42.140;24.760;2022-07-29T13:25:28;3.25;;;3.05;;
5752;SDS011;2901;42.140;24.760;2022-07-29T13:27:56;2.80;;;2.70;;
5752;SDS011;2901;42.140;24.760;2022-07-29T13:30:22;3.97;;;3.78;;
5752;SDS011;2901;42.140;24.760;2022-07-29T13:32:49;3.53;;;3.33;;
5752;SDS011;2901;42.140;24.760;2022-07-29T13:35:15;3.22;;;3.00;;
5752;SDS011;2901;42.140;24.760;2022-07-29T13:37:41;2.65;;;2.55;;
5752;SDS011;2901;42.140;24.760;2022-07-29T13:40:07;3.90;;;3.65;;
5752;SDS011;2901;42.140;24.760;2022-07-29T13:42:33;3.35;;;3.15;;
5752;SDS011;2901;42.140;24.760;2022-07-29T13:44:59;5.90;;;3.03;;
5752;SDS011;2901;42.140;24.760;2022-07-29T13:47:25;3.22;;;2.88;;
5752;SDS011;2901;42.140;24.760;2022-07-29T13:49:50;3.60;;;3.15;;
5752;SDS011;2901;42.140;24.760;2022-07-29T13:52:16;3.22;;;3.13;;
5752;SDS011;2901;42.140;24.760;2022-07-29T13:54:42;5.20;;;3.13;;
5752;SDS011;2901;42.140;24.760;2022-07-29T13:57:08;3.85;;;3.65;;
5752;SDS011;2901;42.140;24.760;2022-07-29T13:59:35;4.07;;;3.15;;
5752;SDS011;2901;42.140;24.760;2022-07-29T14:02:01;3.83;;;2.80;;
5752;SDS011;2901;42.140;24.760;2022-07-29T14:04:26;3.72;;;2.83;;
5752;SDS011;2901;42.140;24.760;2022-07-29T14:06:51;3.55;;;3.30;;
5752;SDS011;2901;42.140;24.760;2022-07-29T14:09:17;5.80;;;4.80;;
5752;SDS011;2901;42.140;24.760;2022-07-29T14:11:42;3.00;;;2.80;;
5752;SDS011;2901;42.140;24.760;2022-07-29T14:14:08;2.70;;;2.60;;
5752;SDS011;2901;42.140;24.760;2022-07-29T14:16:35;4.07;;;2.63;;
5752;SDS011;2901;42.140;24.760;2022-07-29T14:19:00;2.90;;;2.80;;
5752;SDS011;2901;42.140;24.760;2022-07-29T14:21:26;4.45;;;2.80;;
5752;SDS011;2901;42.140;24.760;2022-07-29T14:23:51;2.33;;;2.22;;
5752;SDS011;2901;42.140;24.760;2022-07-29T14:26:17;5.43;;;2.75;;
5752;SDS011;2901;42.140;24.760;2022-07-29T14:28:43;3.58;;;2.40;;
5752;SDS011;2901;42.140;24.760;2022-07-29T14:31:09;2.65;;;2.55;;
5752;SDS011;2901;42.140;24.760;2022-07-29T14:33:34;3.53;;;2.72;;
5752;SDS011;2901;42.140;24.760;2022-07-29T14:36:00;3.78;;;2.60;;
5752;SDS011;2901;42.140;24.760;2022-07-29T14:38:25;4.78;;;1.83;;
5752;SDS011;2901;42.140;24.760;2022-07-29T14:40:51;2.97;;;2.28;;
5752;SDS011;2901;42.140;24.760;2022-07-29T14:43:16;2.28;;;2.20;;
5752;SDS011;2901;42.140;24.760;2022-07-29T14:45:42;2.97;;;2.47;;
5752;SDS011;2901;42.140;24.760;2022-07-29T14:48:07;2.60;;;2.40;;
5752;SDS011;2901;42.140;24.760;2022-07-29T14:50:33;3.67;;;2.35;;
5752;SDS011;2901;42.140;24.760;2022-07-29T14:52:59;2.70;;;2.47;;
5752;SDS011;2901;42.140;24.760;2022-07-29T14:55:25;2.42;;;2.33;;
5752;SDS011;2901;42.140;24.760;2022-07-29T14:57:50;2.72;;;2.50;;
5752;SDS011;2901;42.140;24.760;2022-07-29T15:00:16;2.30;;;2.20;;
5752;SDS011;2901;42.140;24.760;2022-07-29T15:02:42;2.42;;;2.33;;
5752;SDS011;2901;42.140;24.760;2022-07-29T15:05:07;2.58;;;2.38;;
5752;SDS011;2901;42.140;24.760;2022-07-29T15:07:33;3.40;;;2.80;;
5752;SDS011;2901;42.140;24.760;2022-07-29T15:09:58;2.70;;;2.47;;
5752;SDS011;2901;42.140;24.760;2022-07-29T15:12:24;3.25;;;2.75;;
5752;SDS011;2901;42.140;24.760;2022-07-29T15:14:49;2.28;;;1.88;;
5752;SDS011;2901;42.140;24.760;2022-07-29T15:17:14;5.88;;;2.40;;
5752;SDS011;2901;42.140;24.760;2022-07-29T15:19:40;3.20;;;2.70;;
5752;SDS011;2901;42.140;24.760;2022-07-29T15:22:05;3.70;;;2.47;;
5752;SDS011;2901;42.140;24.760;2022-07-29T15:24:31;3.30;;;2.28;;
5752;SDS011;2901;42.140;24.760;2022-07-29T15:26:56;6.07;;;2.20;;
5752;SDS011;2901;42.140;24.760;2022-07-29T15:29:22;3.15;;;2.78;;
5752;SDS011;2901;42.140;24.760;2022-07-29T15:31:48;2.53;;;2.33;;
5752;SDS011;2901;42.140;24.760;2022-07-29T15:34:13;3.10;;;2.90;;
5752;SDS011;2901;42.140;24.760;2022-07-29T15:36:39;2.50;;;2.40;;
5752;SDS011;2901;42.140;24.760;2022-07-29T15:39:04;4.18;;;2.20;;
5752;SDS011;2901;42.140;24.760;2022-07-29T15:41:30;2.50;;;2.40;;
5752;SDS011;2901;42.140;24.760;2022-07-29T15:43:56;2.55;;;2.42;;
5752;SDS011;2901;42.140;24.760;2022-07-29T15:46:21;3.97;;;2.90;;
5752;SDS011;2901;42.140;24.760;2022-07-29T15:49:05;9.50;;;3.17;;
5752;SDS011;2901;42.140;24.760;2022-07-29T15:51:31;2.72;;;2.63;;
5752;SDS011;2901;42.140;24.760;2022-07-29T15:53:58;2.97;;;2.88;;
5752;SDS011;2901;42.140;24.760;2022-07-29T15:56:25;2.65;;;2.55;;
5752;SDS011;2901;42.140;24.760;2022-07-29T15:58:50;3.80;;;2.92;;
5752;SDS011;2901;42.140;24.760;2022-07-29T16:01:16;3.72;;;2.83;;
5752;SDS011;2901;42.140;24.760;2022-07-29T16:03:41;3.13;;;3.03;;
5752;SDS011;2901;42.140;24.760;2022-07-29T16:06:07;4.43;;;2.83;;
5752;SDS011;2901;42.140;24.760;2022-07-29T16:08:33;4.22;;;3.00;;
5752;SDS011;2901;42.140;24.760;2022-07-29T16:10:59;7.03;;;3.35;;
5752;SDS011;2901;42.140;24.760;2022-07-29T16:13:24;4.03;;;3.15;;
5752;SDS011;2901;42.140;24.760;2022-07-29T16:15:50;3.65;;;2.92;;
5752;SDS011;2901;42.140;24.760;2022-07-29T16:18:15;5.43;;;3.40;;
5752;SDS011;2901;42.140;24.760;2022-07-29T16:20:40;4.07;;;2.63;;
5752;SDS011;2901;42.140;24.760;2022-07-29T16:23:06;3.47;;;3.00;;
5752;SDS011;2901;42.140;24.760;2022-07-29T16:25:37;3.53;;;2.63;;
5752;SDS011;2901;42.140;24.760;2022-07-29T16:28:03;2.65;;;2.53;;
5752;SDS011;2901;42.140;24.760;2022-07-29T16:30:29;2.72;;;2.63;;
5752;SDS011;2901;42.140;24.760;2022-07-29T16:32:54;2.92;;;2.40;;
5752;SDS011;2901;42.140;24.760;2022-07-29T16:35:20;3.67;;;2.53;;
5752;SDS011;2901;42.140;24.760;2022-07-29T16:37:45;4.95;;;2.30;;
5752;SDS011;2901;42.140;24.760;2022-07-29T16:40:10;2.47;;;2.38;;
5752;SDS011;2901;42.140;24.760;2022-07-29T16:42:36;2.83;;;2.63;;
5752;SDS011;2901;42.140;24.760;2022-07-29T16:45:02;2.38;;;2.28;;
5752;SDS011;2901;42.140;24.760;2022-07-29T16:47:28;3.90;;;2.55;;
5752;SDS011;2901;42.140;24.760;2022-07-29T16:49:53;3.83;;;2.88;;
5752;SDS011;2901;42.140;24.760;2022-07-29T16:52:18;5.88;;;2.75;;
5752;SDS011;2901;42.140;24.760;2022-07-29T16:54:44;3.83;;;2.65;;
5752;SDS011;2901;42.140;24.760;2022-07-29T16:57:09;4.00;;;2.50;;
5752;SDS011;2901;42.140;24.760;2022-07-29T16:59:35;2.00;;;1.90;;
5752;SDS011;2901;42.140;24.760;2022-07-29T17:02:01;5.28;;;2.40;;
5752;SDS011;2901;42.140;24.760;2022-07-29T17:04:27;4.40;;;2.80;;
5752;SDS011;2901;42.140;24.760;2022-07-29T17:06:53;3.95;;;2.90;;
5752;SDS011;2901;42.140;24.760;2022-07-29T17:09:19;2.55;;;2.35;;
5752;SDS011;2901;42.140;24.760;2022-07-29T17:11:45;2.50;;;2.40;;
5752;SDS011;2901;42.140;24.760;2022-07-29T17:14:17;3.08;;;2.20;;
5752;SDS011;2901;42.140;24.760;2022-07-29T17:16:42;4.68;;;2.38;;
5752;SDS011;2901;42.140;24.760;2022-07-29T17:19:08;2.50;;;2.40;;
5752;SDS011;2901;42.140;24.760;2022-07-29T17:21:33;6.30;;;2.45;;
5752;SDS011;2901;42.140;24.760;2022-07-29T17:23:58;3.35;;;2.58;;
5752;SDS011;2901;42.140;24.760;2022-07-29T17:26:24;3.03;;;2.78;;
5752;SDS011;2901;42.140;24.760;2022-07-29T17:28:51;3.08;;;2.75;;
5752;SDS011;2901;42.140;24.760;2022-07-29T17:31:16;4.85;;;2.92;;
5752;SDS011;2901;42.140;24.760;2022-07-29T17:33:42;3.20;;;2.92;;
5752;SDS011;2901;42.140;24.760;2022-07-29T17:36:07;5.03;;;2.80;;
5752;SDS011;2901;42.140;24.760;2022-07-29T17:38:48;4.85;;;2.80;;
5752;SDS011;2901;42.140;24.760;2022-07-29T17:41:14;4.25;;;2.88;;
5752;SDS011;2901;42.140;24.760;2022-07-29T17:43:40;3.47;;;3.17;;
5752;SDS011;2901;42.140;24.760;2022-07-29T17:46:06;2.35;;;2.25;;
5752;SDS011;2901;42.140;24.760;2022-07-29T17:48:33;2.58;;;2.47;;
5752;SDS011;2901;42.140;24.760;2022-07-29T17:50:59;2.67;;;2.45;;
5752;SDS011;2901;42.140;24.760;2022-07-29T17:53:24;5.95;;;3.25;;
5752;SDS011;2901;42.140;24.760;2022-07-29T17:55:50;3.00;;;2.80;;
5752;SDS011;2901;42.140;24.760;2022-07-29T17:58:15;4.22;;;3.35;;